sensor_id;sensor_type;location;lat;lon;timestamp;P1;durP1;ratioP1;P2;durP2;ratioP2
56911;SDS011;42800;53.928;27.662;2023-10-31T00:00:49;74.43;;;22.83;;
56911;SDS011;42800;53.928;27.662;2023-10-31T00:03:15;59.13;;;22.58;;
56911;SDS011;42800;53.928;27.662;2023-10-31T00:05:41;74.28;;;19.63;;
56911;SDS011;42800;53.928;27.662;2023-10-31T00:08:07;91.60;;;22.95;;
56911;SDS011;42800;53.928;27.662;2023-10-31T00:10:33;93.50;;;19.92;;
56911;SDS011;42800;53.928;27.662;2023-10-31T00:12:59;81.50;;;21.75;;
56911;SDS011;42800;53.928;27.662;2023-10-31T00:15:26;43.15;;;19.35;;
56911;SDS011;42800;53.928;27.662;2023-10-31T00:17:54;48.97;;;19.40;;
56911;SDS011;42800;53.928;27.662;2023-10-31T00:20:20;56.47;;;18.13;;
56911;SDS011;42800;53.928;27.662;2023-10-31T00:22:46;65.25;;;20.48;;
56911;SDS011;42800;53.928;27.662;2023-10-31T00:25:12;69.70;;;18.80;;
56911;SDS011;42800;53.928;27.662;2023-10-31T00:27:37;61.10;;;18.77;;
56911;SDS011;42800;53.928;27.662;2023-10-31T00:30:04;87.18;;;21.70;;
56911;SDS011;42800;53.928;27.662;2023-10-31T00:32:32;65.80;;;19.80;;
56911;SDS011;42800;53.928;27.662;2023-10-31T00:34:57;66.88;;;18.95;;
56911;SDS011;42800;53.928;27.662;2023-10-31T00:37:23;138.10;;;22.17;;
56911;SDS011;42800;53.928;27.662;2023-10-31T00:39:49;94.68;;;20.08;;
56911;SDS011;42800;53.928;27.662;2023-10-31T00:42:15;54.42;;;19.33;;
56911;SDS011;42800;53.928;27.662;2023-10-31T00:44:41;66.28;;;19.55;;
56911;SDS011;42800;53.928;27.662;2023-10-31T00:47:07;95.38;;;22.05;;
56911;SDS011;42800;53.928;27.662;2023-10-31T00:49:33;59.38;;;20.63;;
56911;SDS011;42800;53.928;27.662;2023-10-31T00:51:59;69.10;;;21.65;;
56911;SDS011;42800;53.928;27.662;2023-10-31T00:54:25;79.32;;;16.40;;
56911;SDS011;42800;53.928;27.662;2023-10-31T00:56:51;36.15;;;16.20;;
56911;SDS011;42800;53.928;27.662;2023-10-31T00:59:17;71.95;;;18.00;;
56911;SDS011;42800;53.928;27.662;2023-10-31T01:01:43;57.17;;;19.95;;
56911;SDS011;42800;53.928;27.662;2023-10-31T01:04:09;115.78;;;23.02;;
56911;SDS011;42800;53.928;27.662;2023-10-31T01:06:40;53.53;;;19.83;;
56911;SDS011;42800;53.928;27.662;2023-10-31T01:09:06;38.67;;;16.88;;
56911;SDS011;42800;53.928;27.662;2023-10-31T01:11:32;35.65;;;17.60;;
56911;SDS011;42800;53.928;27.662;2023-10-31T01:13:58;45.80;;;17.17;;
56911;SDS011;42800;53.928;27.662;2023-10-31T01:16:24;51.63;;;17.35;;
56911;SDS011;42800;53.928;27.662;2023-10-31T01:18:49;32.00;;;17.05;;
56911;SDS011;42800;53.928;27.662;2023-10-31T01:21:15;49.67;;;17.48;;
56911;SDS011;42800;53.928;27.662;2023-10-31T01:23:42;44.97;;;17.50;;
56911;SDS011;42800;53.928;27.662;2023-10-31T01:26:08;32.85;;;16.40;;
56911;SDS011;42800;53.928;27.662;2023-10-31T01:28:34;52.88;;;17.73;;
56911;SDS011;42800;53.928;27.662;2023-10-31T01:31:00;45.30;;;16.25;;
56911;SDS011;42800;53.928;27.662;2023-10-31T01:33:26;54.53;;;18.10;;
56911;SDS011;42800;53.928;27.662;2023-10-31T01:35:52;67.38;;;16.40;;
56911;SDS011;42800;53.928;27.662;2023-10-31T01:38:18;80.88;;;17.13;;
56911;SDS011;42800;53.928;27.662;2023-10-31T01:40:44;39.47;;;16.88;;
56911;SDS011;42800;53.928;27.662;2023-10-31T01:43:28;72.20;;;17.10;;
56911;SDS011;42800;53.928;27.662;2023-10-31T01:45:54;51.20;;;17.73;;
56911;SDS011;42800;53.928;27.662;2023-10-31T01:48:20;39.72;;;16.63;;
56911;SDS011;42800;53.928;27.662;2023-10-31T01:50:48;38.60;;;14.85;;
56911;SDS011;42800;53.928;27.662;2023-10-31T01:53:14;49.10;;;15.85;;
56911;SDS011;42800;53.928;27.662;2023-10-31T01:55:40;93.43;;;18.10;;
56911;SDS011;42800;53.928;27.662;2023-10-31T01:58:08;52.85;;;18.65;;
56911;SDS011;42800;53.928;27.662;2023-10-31T02:00:34;31.02;;;15.02;;
56911;SDS011;42800;53.928;27.662;2023-10-31T02:03:01;38.53;;;16.65;;
56911;SDS011;42800;53.928;27.662;2023-10-31T02:05:27;23.27;;;14.70;;
56911;SDS011;42800;53.928;27.662;2023-10-31T02:07:53;80.93;;;13.75;;
56911;SDS011;42800;53.928;27.662;2023-10-31T02:10:19;97.25;;;15.55;;
56911;SDS011;42800;53.928;27.662;2023-10-31T02:12:45;61.67;;;15.50;;
56911;SDS011;42800;53.928;27.662;2023-10-31T02:15:12;218.15;;;18.80;;
56911;SDS011;42800;53.928;27.662;2023-10-31T02:17:38;75.28;;;15.60;;
56911;SDS011;42800;53.928;27.662;2023-10-31T02:20:04;39.60;;;14.95;;
56911;SDS011;42800;53.928;27.662;2023-10-31T02:22:31;98.35;;;18.30;;
56911;SDS011;42800;53.928;27.662;2023-10-31T02:24:57;206.65;;;19.88;;
56911;SDS011;42800;53.928;27.662;2023-10-31T02:27:23;106.22;;;16.67;;
56911;SDS011;42800;53.928;27.662;2023-10-31T02:29:49;99.40;;;16.10;;
56911;SDS011;42800;53.928;27.662;2023-10-31T02:32:15;135.65;;;17.00;;
56911;SDS011;42800;53.928;27.662;2023-10-31T02:34:41;147.82;;;18.20;;
56911;SDS011;42800;53.928;27.662;2023-10-31T02:37:07;54.83;;;14.77;;
56911;SDS011;42800;53.928;27.662;2023-10-31T02:39:33;66.60;;;15.65;;
56911;SDS011;42800;53.928;27.662;2023-10-31T02:41:59;179.95;;;20.83;;
56911;SDS011;42800;53.928;27.662;2023-10-31T02:44:26;144.48;;;20.00;;
56911;SDS011;42800;53.928;27.662;2023-10-31T02:46:52;113.80;;;19.52;;
56911;SDS011;42800;53.928;27.662;2023-10-31T02:49:18;70.45;;;17.17;;
56911;SDS011;42800;53.928;27.662;2023-10-31T02:51:44;117.03;;;18.48;;
56911;SDS011;42800;53.928;27.662;2023-10-31T02:54:09;119.57;;;20.95;;
56911;SDS011;42800;53.928;27.662;2023-10-31T02:56:36;108.28;;;19.60;;
56911;SDS011;42800;53.928;27.662;2023-10-31T02:59:02;46.03;;;16.67;;
56911;SDS011;42800;53.928;27.662;2023-10-31T03:01:28;59.58;;;18.30;;
56911;SDS011;42800;53.928;27.662;2023-10-31T03:03:54;143.57;;;20.13;;
56911;SDS011;42800;53.928;27.662;2023-10-31T03:06:20;125.95;;;20.05;;
56911;SDS011;42800;53.928;27.662;2023-10-31T03:08:46;66.10;;;18.77;;
56911;SDS011;42800;53.928;27.662;2023-10-31T03:11:20;101.40;;;22.35;;
56911;SDS011;42800;53.928;27.662;2023-10-31T03:13:47;88.68;;;21.55;;
56911;SDS011;42800;53.928;27.662;2023-10-31T03:16:13;177.00;;;24.95;;
56911;SDS011;42800;53.928;27.662;2023-10-31T03:18:39;132.10;;;21.90;;
56911;SDS011;42800;53.928;27.662;2023-10-31T03:21:05;129.85;;;21.52;;
56911;SDS011;42800;53.928;27.662;2023-10-31T03:23:31;140.40;;;19.88;;
56911;SDS011;42800;53.928;27.662;2023-10-31T03:25:57;138.38;;;14.98;;
56911;SDS011;42800;53.928;27.662;2023-10-31T03:28:23;161.10;;;14.88;;
56911;SDS011;42800;53.928;27.662;2023-10-31T03:30:50;67.95;;;11.13;;
56911;SDS011;42800;53.928;27.662;2023-10-31T03:33:16;191.52;;;13.93;;
56911;SDS011;42800;53.928;27.662;2023-10-31T03:35:42;146.95;;;12.73;;
56911;SDS011;42800;53.928;27.662;2023-10-31T03:38:08;154.80;;;13.32;;
56911;SDS011;42800;53.928;27.662;2023-10-31T03:40:34;83.20;;;12.07;;
56911;SDS011;42800;53.928;27.662;2023-10-31T03:43:00;75.93;;;11.07;;
56911;SDS011;42800;53.928;27.662;2023-10-31T03:45:26;134.80;;;11.80;;
56911;SDS011;42800;53.928;27.662;2023-10-31T03:47:52;150.02;;;13.07;;
56911;SDS011;42800;53.928;27.662;2023-10-31T03:50:18;260.17;;;17.40;;
56911;SDS011;42800;53.928;27.662;2023-10-31T03:52:44;107.95;;;11.20;;
56911;SDS011;42800;53.928;27.662;2023-10-31T03:55:10;118.80;;;10.80;;
56911;SDS011;42800;53.928;27.662;2023-10-31T03:57:36;160.98;;;11.73;;
56911;SDS011;42800;53.928;27.662;2023-10-31T04:00:02;168.63;;;12.52;;
56911;SDS011;42800;53.928;27.662;2023-10-31T04:02:29;123.93;;;14.30;;
56911;SDS011;42800;53.928;27.662;2023-10-31T04:04:56;104.50;;;12.65;;
56911;SDS011;42800;53.928;27.662;2023-10-31T04:07:22;263.73;;;15.35;;
56911;SDS011;42800;53.928;27.662;2023-10-31T04:09:47;229.23;;;14.73;;
56911;SDS011;42800;53.928;27.662;2023-10-31T04:12:13;112.88;;;14.23;;
56911;SDS011;42800;53.928;27.662;2023-10-31T04:14:39;64.88;;;12.73;;
56911;SDS011;42800;53.928;27.662;2023-10-31T04:17:05;144.48;;;14.38;;
56911;SDS011;42800;53.928;27.662;2023-10-31T04:19:31;167.05;;;15.25;;
56911;SDS011;42800;53.928;27.662;2023-10-31T04:21:57;70.32;;;13.32;;
56911;SDS011;42800;53.928;27.662;2023-10-31T04:24:23;136.85;;;15.32;;
56911;SDS011;42800;53.928;27.662;2023-10-31T04:26:49;96.78;;;13.48;;
56911;SDS011;42800;53.928;27.662;2023-10-31T04:29:15;144.10;;;17.38;;
56911;SDS011;42800;53.928;27.662;2023-10-31T04:31:41;109.13;;;15.02;;
56911;SDS011;42800;53.928;27.662;2023-10-31T04:34:07;178.60;;;15.80;;
56911;SDS011;42800;53.928;27.662;2023-10-31T04:36:33;251.70;;;16.23;;
56911;SDS011;42800;53.928;27.662;2023-10-31T04:39:00;93.47;;;14.18;;
56911;SDS011;42800;53.928;27.662;2023-10-31T04:41:25;159.35;;;15.40;;
56911;SDS011;42800;53.928;27.662;2023-10-31T04:43:51;96.35;;;14.10;;
56911;SDS011;42800;53.928;27.662;2023-10-31T04:46:18;142.23;;;16.27;;
56911;SDS011;42800;53.928;27.662;2023-10-31T04:48:44;75.55;;;13.43;;
56911;SDS011;42800;53.928;27.662;2023-10-31T04:51:10;50.38;;;13.80;;
56911;SDS011;42800;53.928;27.662;2023-10-31T04:53:36;110.22;;;14.55;;
56911;SDS011;42800;53.928;27.662;2023-10-31T04:56:03;126.43;;;16.95;;
56911;SDS011;42800;53.928;27.662;2023-10-31T04:58:29;119.10;;;16.02;;
56911;SDS011;42800;53.928;27.662;2023-10-31T05:00:55;46.88;;;15.55;;
56911;SDS011;42800;53.928;27.662;2023-10-31T05:03:21;131.63;;;16.70;;
56911;SDS011;42800;53.928;27.662;2023-10-31T05:05:47;259.75;;;20.25;;
56911;SDS011;42800;53.928;27.662;2023-10-31T05:08:13;250.45;;;20.17;;
56911;SDS011;42800;53.928;27.662;2023-10-31T05:10:38;144.20;;;16.27;;
56911;SDS011;42800;53.928;27.662;2023-10-31T05:13:05;107.03;;;17.35;;
56911;SDS011;42800;53.928;27.662;2023-10-31T05:15:31;68.18;;;15.07;;
56911;SDS011;42800;53.928;27.662;2023-10-31T05:17:57;221.20;;;18.30;;
56911;SDS011;42800;53.928;27.662;2023-10-31T05:20:23;79.82;;;17.80;;
56911;SDS011;42800;53.928;27.662;2023-10-31T05:22:49;40.75;;;14.93;;
56911;SDS011;42800;53.928;27.662;2023-10-31T05:25:15;52.05;;;16.27;;
56911;SDS011;42800;53.928;27.662;2023-10-31T05:27:41;44.83;;;18.27;;
56911;SDS011;42800;53.928;27.662;2023-10-31T05:30:08;35.72;;;16.40;;
56911;SDS011;42800;53.928;27.662;2023-10-31T05:32:34;28.83;;;14.45;;
56911;SDS011;42800;53.928;27.662;2023-10-31T05:35:00;27.40;;;14.93;;
56911;SDS011;42800;53.928;27.662;2023-10-31T05:37:27;26.52;;;14.43;;
56911;SDS011;42800;53.928;27.662;2023-10-31T05:39:53;28.48;;;15.02;;
56911;SDS011;42800;53.928;27.662;2023-10-31T05:42:19;35.15;;;13.55;;
56911;SDS011;42800;53.928;27.662;2023-10-31T05:44:45;22.05;;;12.48;;
56911;SDS011;42800;53.928;27.662;2023-10-31T05:47:12;23.40;;;11.98;;
56911;SDS011;42800;53.928;27.662;2023-10-31T05:49:38;22.20;;;13.45;;
56911;SDS011;42800;53.928;27.662;2023-10-31T05:52:04;21.17;;;13.20;;
56911;SDS011;42800;53.928;27.662;2023-10-31T05:54:30;20.05;;;11.82;;
56911;SDS011;42800;53.928;27.662;2023-10-31T05:56:56;17.38;;;11.88;;
56911;SDS011;42800;53.928;27.662;2023-10-31T05:59:22;19.42;;;11.95;;
56911;SDS011;42800;53.928;27.662;2023-10-31T06:01:48;22.20;;;11.68;;
56911;SDS011;42800;53.928;27.662;2023-10-31T06:04:16;21.50;;;11.90;;
56911;SDS011;42800;53.928;27.662;2023-10-31T06:06:41;19.75;;;12.15;;
56911;SDS011;42800;53.928;27.662;2023-10-31T06:09:07;18.20;;;11.20;;
56911;SDS011;42800;53.928;27.662;2023-10-31T06:11:35;20.77;;;10.88;;
56911;SDS011;42800;53.928;27.662;2023-10-31T06:14:01;18.02;;;10.05;;
56911;SDS011;42800;53.928;27.662;2023-10-31T06:16:26;16.10;;;11.05;;
56911;SDS011;42800;53.928;27.662;2023-10-31T06:18:52;17.48;;;10.05;;
56911;SDS011;42800;53.928;27.662;2023-10-31T06:21:19;16.67;;;10.02;;
56911;SDS011;42800;53.928;27.662;2023-10-31T06:23:45;16.90;;;10.63;;
56911;SDS011;42800;53.928;27.662;2023-10-31T06:26:11;27.83;;;12.07;;
56911;SDS011;42800;53.928;27.662;2023-10-31T06:28:37;35.72;;;16.30;;
56911;SDS011;42800;53.928;27.662;2023-10-31T06:31:05;34.13;;;19.23;;
56911;SDS011;42800;53.928;27.662;2023-10-31T06:33:31;35.50;;;19.58;;
56911;SDS011;42800;53.928;27.662;2023-10-31T06:35:56;49.35;;;27.13;;
56911;SDS011;42800;53.928;27.662;2023-10-31T06:38:23;18.38;;;13.52;;
56911;SDS011;42800;53.928;27.662;2023-10-31T06:40:49;21.65;;;13.38;;
56911;SDS011;42800;53.928;27.662;2023-10-31T06:43:15;17.85;;;11.38;;
56911;SDS011;42800;53.928;27.662;2023-10-31T06:45:41;25.55;;;11.95;;
56911;SDS011;42800;53.928;27.662;2023-10-31T06:48:07;16.55;;;12.02;;
56911;SDS011;42800;53.928;27.662;2023-10-31T06:50:34;22.38;;;11.13;;
56911;SDS011;42800;53.928;27.662;2023-10-31T06:53:00;22.75;;;13.43;;
56911;SDS011;42800;53.928;27.662;2023-10-31T06:55:26;17.05;;;10.77;;
56911;SDS011;42800;53.928;27.662;2023-10-31T06:57:52;22.25;;;11.65;;
56911;SDS011;42800;53.928;27.662;2023-10-31T07:00:18;17.50;;;11.25;;
56911;SDS011;42800;53.928;27.662;2023-10-31T07:02:44;20.90;;;13.35;;
56911;SDS011;42800;53.928;27.662;2023-10-31T07:05:10;22.13;;;12.10;;
56911;SDS011;42800;53.928;27.662;2023-10-31T07:07:36;22.60;;;12.90;;
56911;SDS011;42800;53.928;27.662;2023-10-31T07:10:02;16.63;;;11.82;;
56911;SDS011;42800;53.928;27.662;2023-10-31T07:12:30;18.48;;;10.65;;
56911;SDS011;42800;53.928;27.662;2023-10-31T07:14:56;15.55;;;9.60;;
56911;SDS011;42800;53.928;27.662;2023-10-31T07:17:23;15.70;;;9.85;;
56911;SDS011;42800;53.928;27.662;2023-10-31T07:19:49;21.23;;;10.02;;
56911;SDS011;42800;53.928;27.662;2023-10-31T07:22:15;16.25;;;9.93;;
56911;SDS011;42800;53.928;27.662;2023-10-31T07:24:41;18.55;;;10.77;;
56911;SDS011;42800;53.928;27.662;2023-10-31T07:27:07;17.58;;;10.85;;
56911;SDS011;42800;53.928;27.662;2023-10-31T07:29:34;20.75;;;9.70;;
56911;SDS011;42800;53.928;27.662;2023-10-31T07:32:00;12.80;;;8.38;;
56911;SDS011;42800;53.928;27.662;2023-10-31T07:34:26;17.35;;;9.85;;
56911;SDS011;42800;53.928;27.662;2023-10-31T07:36:54;13.63;;;8.90;;
56911;SDS011;42800;53.928;27.662;2023-10-31T07:39:21;17.83;;;9.93;;
56911;SDS011;42800;53.928;27.662;2023-10-31T07:41:48;16.52;;;8.48;;
56911;SDS011;42800;53.928;27.662;2023-10-31T07:44:14;13.18;;;9.45;;
56911;SDS011;42800;53.928;27.662;2023-10-31T07:46:40;21.08;;;9.25;;
56911;SDS011;42800;53.928;27.662;2023-10-31T07:49:07;17.42;;;9.50;;
56911;SDS011;42800;53.928;27.662;2023-10-31T07:51:33;18.65;;;9.55;;
56911;SDS011;42800;53.928;27.662;2023-10-31T07:53:59;13.45;;;9.02;;
56911;SDS011;42800;53.928;27.662;2023-10-31T07:56:25;16.40;;;9.32;;
56911;SDS011;42800;53.928;27.662;2023-10-31T07:58:51;14.77;;;9.85;;
56911;SDS011;42800;53.928;27.662;2023-10-31T08:01:17;14.68;;;8.73;;
56911;SDS011;42800;53.928;27.662;2023-10-31T08:03:45;19.05;;;9.68;;
56911;SDS011;42800;53.928;27.662;2023-10-31T08:06:12;12.43;;;7.78;;
56911;SDS011;42800;53.928;27.662;2023-10-31T08:08:38;14.63;;;10.30;;
56911;SDS011;42800;53.928;27.662;2023-10-31T08:11:06;23.35;;;9.95;;
56911;SDS011;42800;53.928;27.662;2023-10-31T08:13:33;16.63;;;9.07;;
56911;SDS011;42800;53.928;27.662;2023-10-31T08:15:58;16.10;;;10.45;;
56911;SDS011;42800;53.928;27.662;2023-10-31T08:18:24;14.52;;;10.43;;
56911;SDS011;42800;53.928;27.662;2023-10-31T08:20:51;14.52;;;10.27;;
56911;SDS011;42800;53.928;27.662;2023-10-31T08:23:17;18.30;;;11.55;;
56911;SDS011;42800;53.928;27.662;2023-10-31T08:25:43;15.15;;;11.07;;
56911;SDS011;42800;53.928;27.662;2023-10-31T08:28:09;15.98;;;11.95;;
56911;SDS011;42800;53.928;27.662;2023-10-31T08:30:35;21.85;;;12.07;;
56911;SDS011;42800;53.928;27.662;2023-10-31T08:33:01;24.00;;;13.15;;
56911;SDS011;42800;53.928;27.662;2023-10-31T08:35:27;18.92;;;12.30;;
56911;SDS011;42800;53.928;27.662;2023-10-31T08:37:54;20.00;;;11.20;;
56911;SDS011;42800;53.928;27.662;2023-10-31T08:40:20;24.35;;;15.13;;
56911;SDS011;42800;53.928;27.662;2023-10-31T08:42:46;17.55;;;12.27;;
56911;SDS011;42800;53.928;27.662;2023-10-31T08:45:12;21.00;;;14.63;;
56911;SDS011;42800;53.928;27.662;2023-10-31T08:47:38;22.05;;;14.48;;
56911;SDS011;42800;53.928;27.662;2023-10-31T08:50:04;19.77;;;13.75;;
56911;SDS011;42800;53.928;27.662;2023-10-31T08:52:33;20.23;;;13.38;;
56911;SDS011;42800;53.928;27.662;2023-10-31T08:55:00;19.98;;;12.68;;
56911;SDS011;42800;53.928;27.662;2023-10-31T08:57:26;19.02;;;11.75;;
56911;SDS011;42800;53.928;27.662;2023-10-31T08:59:51;20.25;;;12.23;;
56911;SDS011;42800;53.928;27.662;2023-10-31T09:02:17;16.73;;;11.68;;
56911;SDS011;42800;53.928;27.662;2023-10-31T09:04:43;20.27;;;13.25;;
56911;SDS011;42800;53.928;27.662;2023-10-31T09:07:09;17.30;;;11.35;;
56911;SDS011;42800;53.928;27.662;2023-10-31T09:09:35;15.40;;;12.40;;
56911;SDS011;42800;53.928;27.662;2023-10-31T09:12:02;18.77;;;11.13;;
56911;SDS011;42800;53.928;27.662;2023-10-31T09:14:28;19.90;;;12.02;;
56911;SDS011;42800;53.928;27.662;2023-10-31T09:16:54;21.77;;;13.30;;
56911;SDS011;42800;53.928;27.662;2023-10-31T09:19:20;18.30;;;11.52;;
56911;SDS011;42800;53.928;27.662;2023-10-31T09:21:46;16.70;;;11.30;;
56911;SDS011;42800;53.928;27.662;2023-10-31T09:24:11;15.05;;;10.77;;
56911;SDS011;42800;53.928;27.662;2023-10-31T09:26:41;15.07;;;10.65;;
56911;SDS011;42800;53.928;27.662;2023-10-31T09:29:08;18.08;;;11.25;;
56911;SDS011;42800;53.928;27.662;2023-10-31T09:31:34;17.65;;;9.70;;
56911;SDS011;42800;53.928;27.662;2023-10-31T09:34:00;12.32;;;9.65;;
56911;SDS011;42800;53.928;27.662;2023-10-31T09:36:28;20.48;;;10.90;;
56911;SDS011;42800;53.928;27.662;2023-10-31T09:38:54;14.32;;;10.95;;
56911;SDS011;42800;53.928;27.662;2023-10-31T09:41:20;16.33;;;11.18;;
56911;SDS011;42800;53.928;27.662;2023-10-31T09:43:46;16.80;;;10.02;;
56911;SDS011;42800;53.928;27.662;2023-10-31T09:46:13;17.27;;;9.15;;
56911;SDS011;42800;53.928;27.662;2023-10-31T09:48:39;13.23;;;9.65;;
56911;SDS011;42800;53.928;27.662;2023-10-31T09:51:06;17.65;;;10.63;;
56911;SDS011;42800;53.928;27.662;2023-10-31T09:53:34;17.25;;;10.93;;
56911;SDS011;42800;53.928;27.662;2023-10-31T09:56:04;13.60;;;9.55;;
56911;SDS011;42800;53.928;27.662;2023-10-31T09:58:31;20.33;;;8.55;;
56911;SDS011;42800;53.928;27.662;2023-10-31T10:00:57;14.52;;;8.93;;
56911;SDS011;42800;53.928;27.662;2023-10-31T10:03:24;13.02;;;9.00;;
56911;SDS011;42800;53.928;27.662;2023-10-31T10:05:51;14.10;;;8.43;;
56911;SDS011;42800;53.928;27.662;2023-10-31T10:08:17;14.57;;;8.77;;
56911;SDS011;42800;53.928;27.662;2023-10-31T10:10:43;16.30;;;9.15;;
56911;SDS011;42800;53.928;27.662;2023-10-31T10:13:08;13.73;;;8.73;;
56911;SDS011;42800;53.928;27.662;2023-10-31T10:15:45;17.83;;;8.57;;
56911;SDS011;42800;53.928;27.662;2023-10-31T10:18:24;19.88;;;10.10;;
56911;SDS011;42800;53.928;27.662;2023-10-31T10:20:54;17.08;;;8.93;;
56911;SDS011;42800;53.928;27.662;2023-10-31T10:23:21;17.45;;;9.45;;
56911;SDS011;42800;53.928;27.662;2023-10-31T10:25:49;13.88;;;9.25;;
56911;SDS011;42800;53.928;27.662;2023-10-31T10:28:15;14.25;;;8.60;;
56911;SDS011;42800;53.928;27.662;2023-10-31T10:30:41;11.75;;;7.00;;
56911;SDS011;42800;53.928;27.662;2023-10-31T10:33:07;11.70;;;7.80;;
56911;SDS011;42800;53.928;27.662;2023-10-31T10:35:33;15.05;;;7.28;;
56911;SDS011;42800;53.928;27.662;2023-10-31T10:38:00;12.05;;;6.90;;
56911;SDS011;42800;53.928;27.662;2023-10-31T10:40:28;10.52;;;7.13;;
56911;SDS011;42800;53.928;27.662;2023-10-31T10:42:54;16.52;;;8.25;;
56911;SDS011;42800;53.928;27.662;2023-10-31T10:45:25;11.90;;;6.68;;
56911;SDS011;42800;53.928;27.662;2023-10-31T10:47:51;8.77;;;6.45;;
56911;SDS011;42800;53.928;27.662;2023-10-31T10:50:18;16.83;;;7.63;;
56911;SDS011;42800;53.928;27.662;2023-10-31T10:52:48;11.25;;;6.68;;
56911;SDS011;42800;53.928;27.662;2023-10-31T10:55:20;11.60;;;7.25;;
56911;SDS011;42800;53.928;27.662;2023-10-31T10:57:52;13.25;;;7.78;;
56911;SDS011;42800;53.928;27.662;2023-10-31T11:00:25;11.35;;;6.07;;
56911;SDS011;42800;53.928;27.662;2023-10-31T11:02:52;13.48;;;6.05;;
56911;SDS011;42800;53.928;27.662;2023-10-31T11:05:18;14.60;;;6.28;;
56911;SDS011;42800;53.928;27.662;2023-10-31T11:07:45;11.20;;;5.95;;
56911;SDS011;42800;53.928;27.662;2023-10-31T11:10:13;12.90;;;6.18;;
56911;SDS011;42800;53.928;27.662;2023-10-31T11:12:40;10.63;;;5.60;;
56911;SDS011;42800;53.928;27.662;2023-10-31T11:15:08;10.13;;;5.40;;
56911;SDS011;42800;53.928;27.662;2023-10-31T11:17:37;9.07;;;5.80;;
56911;SDS011;42800;53.928;27.662;2023-10-31T11:20:05;8.30;;;4.97;;
56911;SDS011;42800;53.928;27.662;2023-10-31T11:22:37;8.85;;;5.07;;
56911;SDS011;42800;53.928;27.662;2023-10-31T11:25:06;13.10;;;5.80;;
56911;SDS011;42800;53.928;27.662;2023-10-31T11:27:33;9.73;;;5.18;;
56911;SDS011;42800;53.928;27.662;2023-10-31T11:30:00;8.27;;;5.07;;
56911;SDS011;42800;53.928;27.662;2023-10-31T11:32:26;14.02;;;7.47;;
56911;SDS011;42800;53.928;27.662;2023-10-31T11:34:52;10.77;;;4.97;;
56911;SDS011;42800;53.928;27.662;2023-10-31T11:37:18;10.25;;;4.93;;
56911;SDS011;42800;53.928;27.662;2023-10-31T11:40:15;12.27;;;7.15;;
56911;SDS011;42800;53.928;27.662;2023-10-31T11:42:47;15.00;;;5.45;;
56911;SDS011;42800;53.928;27.662;2023-10-31T11:45:24;8.73;;;4.72;;
56911;SDS011;42800;53.928;27.662;2023-10-31T11:47:51;12.45;;;5.28;;
56911;SDS011;42800;53.928;27.662;2023-10-31T11:50:17;13.90;;;5.32;;
56911;SDS011;42800;53.928;27.662;2023-10-31T11:52:43;8.48;;;4.75;;
56911;SDS011;42800;53.928;27.662;2023-10-31T11:55:09;15.90;;;5.40;;
56911;SDS011;42800;53.928;27.662;2023-10-31T11:57:38;11.77;;;5.95;;
56911;SDS011;42800;53.928;27.662;2023-10-31T12:00:04;8.50;;;5.68;;
56911;SDS011;42800;53.928;27.662;2023-10-31T12:02:32;8.95;;;5.50;;
56911;SDS011;42800;53.928;27.662;2023-10-31T12:07:42;11.30;;;4.95;;
56911;SDS011;42800;53.928;27.662;2023-10-31T12:10:08;8.98;;;5.07;;
56911;SDS011;42800;53.928;27.662;2023-10-31T12:12:34;11.20;;;5.50;;
56911;SDS011;42800;53.928;27.662;2023-10-31T12:15:04;12.18;;;8.20;;
56911;SDS011;42800;53.928;27.662;2023-10-31T12:17:32;14.57;;;5.82;;
56911;SDS011;42800;53.928;27.662;2023-10-31T12:19:58;11.38;;;8.55;;
56911;SDS011;42800;53.928;27.662;2023-10-31T12:22:28;11.82;;;5.72;;
56911;SDS011;42800;53.928;27.662;2023-10-31T12:24:59;11.55;;;6.68;;
56911;SDS011;42800;53.928;27.662;2023-10-31T12:27:26;10.55;;;4.97;;
56911;SDS011;42800;53.928;27.662;2023-10-31T12:30:09;20.38;;;5.93;;
56911;SDS011;42800;53.928;27.662;2023-10-31T12:32:35;8.40;;;5.25;;
56911;SDS011;42800;53.928;27.662;2023-10-31T12:35:01;12.00;;;5.65;;
56911;SDS011;42800;53.928;27.662;2023-10-31T12:37:27;12.00;;;5.78;;
56911;SDS011;42800;53.928;27.662;2023-10-31T12:39:54;13.80;;;5.68;;
56911;SDS011;42800;53.928;27.662;2023-10-31T12:42:21;9.50;;;5.90;;
56911;SDS011;42800;53.928;27.662;2023-10-31T12:44:48;13.75;;;8.63;;
56911;SDS011;42800;53.928;27.662;2023-10-31T12:47:21;10.43;;;5.00;;
56911;SDS011;42800;53.928;27.662;2023-10-31T12:49:47;12.83;;;5.13;;
56911;SDS011;42800;53.928;27.662;2023-10-31T12:52:14;9.82;;;5.32;;
56911;SDS011;42800;53.928;27.662;2023-10-31T12:54:40;10.75;;;5.25;;
56911;SDS011;42800;53.928;27.662;2023-10-31T12:57:06;11.00;;;5.10;;
56911;SDS011;42800;53.928;27.662;2023-10-31T12:59:36;12.63;;;5.38;;
56911;SDS011;42800;53.928;27.662;2023-10-31T13:02:03;11.82;;;5.53;;
56911;SDS011;42800;53.928;27.662;2023-10-31T13:04:31;12.95;;;5.32;;
56911;SDS011;42800;53.928;27.662;2023-10-31T13:06:59;11.52;;;7.45;;
56911;SDS011;42800;53.928;27.662;2023-10-31T13:09:29;8.60;;;5.68;;
56911;SDS011;42800;53.928;27.662;2023-10-31T13:11:57;9.45;;;4.55;;
56911;SDS011;42800;53.928;27.662;2023-10-31T13:14:24;11.63;;;4.55;;
56911;SDS011;42800;53.928;27.662;2023-10-31T13:16:50;12.02;;;5.03;;
56911;SDS011;42800;53.928;27.662;2023-10-31T13:19:15;13.40;;;5.50;;
56911;SDS011;42800;53.928;27.662;2023-10-31T13:21:42;17.98;;;5.22;;
56911;SDS011;42800;53.928;27.662;2023-10-31T13:24:08;17.63;;;5.13;;
56911;SDS011;42800;53.928;27.662;2023-10-31T13:26:34;15.85;;;5.28;;
56911;SDS011;42800;53.928;27.662;2023-10-31T13:29:00;8.27;;;4.35;;
56911;SDS011;42800;53.928;27.662;2023-10-31T13:31:26;9.82;;;5.25;;
56911;SDS011;42800;53.928;27.662;2023-10-31T13:33:52;10.48;;;5.13;;
56911;SDS011;42800;53.928;27.662;2023-10-31T13:36:18;14.45;;;8.25;;
56911;SDS011;42800;53.928;27.662;2023-10-31T13:38:46;13.05;;;5.03;;
56911;SDS011;42800;53.928;27.662;2023-10-31T13:41:13;9.32;;;5.28;;
56911;SDS011;42800;53.928;27.662;2023-10-31T13:43:39;13.25;;;4.97;;
56911;SDS011;42800;53.928;27.662;2023-10-31T13:46:05;10.18;;;4.90;;
56911;SDS011;42800;53.928;27.662;2023-10-31T13:48:31;12.18;;;5.32;;
56911;SDS011;42800;53.928;27.662;2023-10-31T13:50:57;10.95;;;5.20;;
56911;SDS011;42800;53.928;27.662;2023-10-31T13:53:23;12.95;;;7.88;;
56911;SDS011;42800;53.928;27.662;2023-10-31T13:55:50;9.80;;;5.03;;
56911;SDS011;42800;53.928;27.662;2023-10-31T13:58:15;10.43;;;5.18;;
56911;SDS011;42800;53.928;27.662;2023-10-31T14:00:42;11.95;;;5.68;;
56911;SDS011;42800;53.928;27.662;2023-10-31T14:03:09;15.75;;;5.07;;
56911;SDS011;42800;53.928;27.662;2023-10-31T14:05:35;13.27;;;8.60;;
56911;SDS011;42800;53.928;27.662;2023-10-31T14:08:01;11.52;;;6.45;;
56911;SDS011;42800;53.928;27.662;2023-10-31T14:10:28;9.32;;;5.10;;